Time;durP1;ratioP1;P1;durP2;ratioP2;P2;SDS_P1;SDS_P2;PMS_P1;PMS_P2;Temp;Humidity;BMP_temperature;BMP_pressure;BME280_temperature;BME280_humidity;BME280_pressure;Samples;Min_cycle;Max_cycle;Signal;HPM_P1;HPM_P2
2021/07/13 00:01:58;;;;;;;9.67;8.87;;;22.60;99.90;;;;;;4918159;29;20662;-69
2021/07/13 00:04:25;;;;;;;9.17;8.47;;;22.60;99.90;;;;;;4918119;29;20193;-79
2021/07/13 00:06:51;;;;;;;9.83;9.03;;;22.60;99.90;;;;;;4917716;29;20559;-68
2021/07/13 00:09:19;;;;;;;9.60;8.80;;;22.60;99.90;;;;;;4918142;29;20399;-68
2021/07/13 00:11:44;;;;;;;9.90;9.20;;;22.60;99.90;;;;;;4916863;29;20514;-68
2021/07/13 00:14:11;;;;;;;8.87;8.23;;;22.60;99.90;;;;;;4918060;29;20531;-68
2021/07/13 00:16:36;;;;;;;10.03;8.60;;;22.60;99.90;;;;;;4916918;29;20194;-68
2021/07/13 00:19:02;;;;;;;10.70;9.73;;;22.60;99.90;;;;;;4917954;29;20423;-69
2021/07/13 00:21:28;;;;;;;9.57;8.77;;;22.60;99.90;;;;;;4916672;29;20292;-69
2021/07/13 00:23:53;;;;;;;9.93;9.10;;;22.60;99.90;;;;;;4917862;29;20706;-69
2021/07/13 00:26:19;;;;;;;9.03;8.17;;;22.50;99.90;;;;;;4917770;29;20226;-69
2021/07/13 00:28:45;;;;;;;10.00;9.20;;;22.50;99.90;;;;;;4917120;29;20174;-68
2021/07/13 00:31:11;;;;;;;9.23;8.53;;;22.50;99.90;;;;;;4899856;29;20224;-70
2021/07/13 00:33:36;;;;;;;9.07;8.47;;;22.50;99.90;;;;;;4916595;29;20195;-69
2021/07/13 00:36:02;;;;;;;8.67;8.07;;;22.50;99.90;;;;;;4917625;29;20277;-69
2021/07/13 00:38:28;;;;;;;9.27;8.57;;;22.50;99.90;;;;;;4916837;29;20225;-70
2021/07/13 00:40:54;;;;;;;9.13;8.43;;;22.50;99.90;;;;;;4916387;29;20286;-69
2021/07/13 00:43:19;;;;;;;9.57;8.60;;;22.50;99.90;;;;;;4917611;29;20178;-69
2021/07/13 00:45:45;;;;;;;9.80;9.00;;;22.50;99.90;;;;;;4915637;29;20178;-69
2021/07/13 00:48:11;;;;;;;9.07;8.37;;;22.50;99.90;;;;;;4917204;29;20214;-68
2021/07/13 00:50:37;;;;;;;9.43;8.73;;;22.50;99.90;;;;;;4916294;29;20333;-69
2021/07/13 00:53:03;;;;;;;9.13;8.37;;;22.50;99.90;;;;;;4917207;29;20886;-69
2021/07/13 00:55:29;;;;;;;10.30;9.50;;;22.50;99.90;;;;;;4916769;29;20170;-70
2021/07/13 00:57:56;;;;;;;9.47;8.87;;;22.50;99.90;;;;;;4916897;29;20772;-68
2021/07/13 01:00:23;;;;;;;10.87;9.40;;;22.50;99.90;;;;;;4900161;29;20447;-69
2021/07/13 01:02:52;;;;;;;10.03;9.33;;;22.50;99.90;;;;;;4916629;29;20422;-69
2021/07/13 01:05:22;;;;;;;9.43;8.83;;;22.50;99.90;;;;;;4917169;29;20436;-69
2021/07/13 01:07:51;;;;;;;8.90;8.20;;;22.40;99.90;;;;;;4916200;29;20425;-69
2021/07/13 01:10:52;;;;;;;8.63;8.03;;;22.40;99.90;;;;;;4916702;29;20420;-69
2021/07/13 01:13:47;;;;;;;10.27;9.37;;;22.40;99.90;;;;;;4892000;29;20943;-68
2021/07/13 01:16:47;;;;;;;9.83;9.13;;;22.30;99.90;;;;;;4917109;29;20399;-69
2021/07/13 01:19:33;;;;;;;9.97;9.27;;;22.30;99.90;;;;;;4917065;29;20824;-69
2021/07/13 01:22:02;;;;;;;9.80;8.80;;;22.30;99.90;;;;;;4916912;29;20443;-69
2021/07/13 01:24:37;;;;;;;9.27;8.67;;;22.30;99.90;;;;;;4916485;29;20851;-68
2021/07/13 01:27:21;;;;;;;9.80;9.10;;;22.30;99.90;;;;;;4917072;29;20811;-69
2021/07/13 01:29:48;;;;;;;10.50;9.70;;;22.40;99.90;;;;;;4916367;29;20778;-69
2021/07/13 01:32:18;;;;;;;9.70;8.90;;;22.40;99.90;;;;;;4916312;29;20458;-68
2021/07/13 01:34:52;;;;;;;9.43;8.73;;;22.40;99.90;;;;;;4916132;29;20455;-69
2021/07/13 01:37:21;;;;;;;10.30;9.50;;;22.40;99.90;;;;;;4916801;29;20399;-69
2021/07/13 01:39:52;;;;;;;11.87;9.60;;;22.40;99.90;;;;;;4915633;29;20426;-69
2021/07/13 01:42:18;;;;;;;9.70;8.90;;;22.40;99.90;;;;;;4916545;29;21119;-69
2021/07/13 01:44:47;;;;;;;9.77;8.87;;;22.40;99.90;;;;;;4915704;29;20513;-69
2021/07/13 01:47:13;;;;;;;10.40;9.60;;;22.40;99.90;;;;;;4916567;29;20429;-68
2021/07/13 01:49:40;;;;;;;9.40;8.70;;;22.40;99.90;;;;;;4915700;29;20450;-69
2021/07/13 01:52:09;;;;;;;10.23;9.53;;;22.40;99.90;;;;;;4916105;29;20903;-69
2021/07/13 01:54:36;;;;;;;10.20;9.23;;;22.40;99.90;;;;;;4915537;29;20414;-69
2021/07/13 01:57:02;;;;;;;10.33;9.63;;;22.40;99.90;;;;;;4916172;29;20433;-68
2021/07/13 01:59:29;;;;;;;10.10;9.50;;;22.40;99.90;;;;;;4916468;29;20457;-68
2021/07/13 02:01:58;;;;;;;9.80;9.10;;;22.40;99.90;;;;;;4915494;29;20878;-68
2021/07/13 02:04:29;;;;;;;10.00;9.30;;;22.40;99.90;;;;;;4916339;29;20434;-69
2021/07/13 02:06:57;;;;;;;11.03;10.03;;;22.40;99.90;;;;;;4915485;29;20395;-69
2021/07/13 02:09:23;;;;;;;10.87;9.87;;;22.40;99.90;;;;;;4916263;29;20407;-69
2021/07/13 02:11:50;;;;;;;9.97;9.27;;;22.40;99.90;;;;;;4915657;29;20454;-69
2021/07/13 02:14:16;;;;;;;9.60;8.90;;;22.40;99.90;;;;;;4916227;29;20769;-69
2021/07/13 02:16:42;;;;;;;10.27;9.57;;;22.30;99.90;;;;;;4915618;29;20526;-69
2021/07/13 02:19:09;;;;;;;9.70;9.00;;;22.30;99.90;;;;;;4916165;29;20189;-69
2021/07/13 02:21:36;;;;;;;11.20;10.10;;;22.30;99.90;;;;;;4915513;29;20466;-69
2021/07/13 02:24:01;;;;;;;10.93;10.00;;;22.20;99.90;;;;;;4916144;29;20419;-68
2021/07/13 02:26:37;;;;;;;11.80;10.70;;;22.20;99.90;;;;;;4899283;29;20418;-68
2021/07/13 02:29:21;;;;;;;10.53;9.83;;;22.10;99.90;;;;;;4916171;29;20458;-69
2021/07/13 02:31:54;;;;;;;12.93;10.17;;;22.10;99.90;;;;;;4914920;29;20549;-68
2021/07/13 02:34:21;;;;;;;11.03;9.77;;;22.00;99.90;;;;;;4916214;29;20805;-68
2021/07/13 02:36:50;;;;;;;11.03;10.20;;;22.00;99.90;;;;;;4915459;29;20415;-69
2021/07/13 02:39:20;;;;;;;10.80;9.90;;;21.90;99.90;;;;;;4916134;29;20402;-68
2021/07/13 02:41:48;;;;;;;10.70;9.90;;;21.80;99.90;;;;;;4915471;29;20545;-69
2021/07/13 02:44:15;;;;;;;10.53;9.73;;;21.70;99.90;;;;;;4915978;29;20494;-68
2021/07/13 02:46:43;;;;;;;9.50;8.90;;;21.60;99.90;;;;;;4916489;29;20430;-69
2021/07/13 02:49:11;;;;;;;10.93;10.13;;;21.60;99.90;;;;;;4915963;29;20498;-69
2021/07/13 02:51:38;;;;;;;10.43;9.60;;;21.60;99.90;;;;;;4915319;29;20501;-69
2021/07/13 02:54:06;;;;;;;10.70;9.90;;;21.60;99.90;;;;;;4916195;29;20834;-69
2021/07/13 02:56:33;;;;;;;10.67;9.87;;;21.60;99.90;;;;;;4916131;29;20848;-69
2021/07/13 02:59:01;;;;;;;9.73;8.93;;;21.70;99.90;;;;;;4898509;29;20511;-69
2021/07/13 03:01:29;;;;;;;10.63;9.70;;;21.70;99.90;;;;;;4915800;29;20502;-69
2021/07/13 03:03:56;;;;;;;9.73;9.03;;;21.70;99.90;;;;;;4917323;29;20415;-68
2021/07/13 03:06:23;;;;;;;10.03;9.33;;;21.80;99.90;;;;;;4919220;29;20411;-68
2021/07/13 03:08:49;;;;;;;10.53;9.73;;;21.80;99.90;;;;;;4918576;29;20902;-71
2021/07/13 03:11:15;;;;;;;10.50;9.60;;;21.80;99.90;;;;;;4919125;29;20453;-68
2021/07/13 03:13:42;;;;;;;10.10;9.40;;;21.90;99.90;;;;;;4918498;29;20419;-68
2021/07/13 03:16:10;;;;;;;9.90;9.20;;;21.90;99.90;;;;;;4919032;29;20414;-68
2021/07/13 03:18:36;;;;;;;11.30;10.30;;;21.90;99.90;;;;;;4918775;29;20410;-79
2021/07/13 03:21:03;;;;;;;11.60;10.63;;;21.90;99.90;;;;;;4918899;29;20458;-68
2021/07/13 03:23:32;;;;;;;12.13;11.00;;;21.90;99.90;;;;;;4918950;29;20410;-69
2021/07/13 03:25:59;;;;;;;10.50;9.70;;;21.80;99.90;;;;;;4918255;29;20413;-69
2021/07/13 03:28:27;;;;;;;10.43;9.70;;;21.80;99.90;;;;;;4918601;29;20423;-68
2021/07/13 03:30:54;;;;;;;10.57;9.80;;;21.80;99.90;;;;;;4910115;29;20466;-69
2021/07/13 03:33:21;;;;;;;10.73;9.93;;;21.80;99.90;;;;;;4901974;29;20454;-68
2021/07/13 03:35:48;;;;;;;10.37;9.60;;;21.80;99.90;;;;;;4918079;29;20411;-68
2021/07/13 03:38:16;;;;;;;10.27;9.67;;;21.80;99.90;;;;;;4918663;29;20418;-68
2021/07/13 03:40:42;;;;;;;11.27;10.50;;;21.80;99.90;;;;;;4917907;29;20457;-68
2021/07/13 03:43:08;;;;;;;10.77;9.97;;;21.80;99.90;;;;;;4901738;29;20434;-68
2021/07/13 03:45:34;;;;;;;9.90;9.17;;;21.80;99.90;;;;;;4918534;29;20407;-68
2021/07/13 03:48:01;;;;;;;11.37;10.57;;;21.80;99.90;;;;;;4917915;29;20903;-68
2021/07/13 03:50:33;;;;;;;11.30;10.30;;;21.80;99.90;;;;;;4918478;29;20183;-68
2021/07/13 03:53:02;;;;;;;10.30;9.50;;;21.80;99.90;;;;;;4901058;29;20414;-68
2021/07/13 03:55:28;;;;;;;10.80;10.00;;;21.80;99.90;;;;;;4918383;29;20422;-68
2021/07/13 03:57:55;;;;;;;10.43;9.53;;;21.80;99.90;;;;;;4917575;29;20430;-68
2021/07/13 04:00:24;;;;;;;11.30;10.50;;;21.80;99.90;;;;;;4901569;29;20545;-68
2021/07/13 04:02:50;;;;;;;12.07;11.27;;;21.80;99.90;;;;;;4917932;29;20466;-68
2021/07/13 04:05:16;;;;;;;10.43;9.63;;;21.80;99.90;;;;;;4918264;29;20450;-68
2021/07/13 04:07:42;;;;;;;10.20;9.40;;;21.80;99.90;;;;;;4917554;29;20582;-68
2021/07/13 04:10:10;;;;;;;10.90;10.10;;;21.80;99.90;;;;;;4918328;29;20407;-68
2021/07/13 04:12:36;;;;;;;12.10;11.20;;;21.80;99.90;;;;;;4918121;29;20881;-68
2021/07/13 04:15:04;;;;;;;11.70;10.80;;;21.80;99.90;;;;;;4917207;29;20465;-68
2021/07/13 04:17:29;;;;;;;12.47;11.57;;;21.80;99.90;;;;;;4917474;29;20178;-68
2021/07/13 04:19:55;;;;;;;10.53;9.83;;;21.80;99.90;;;;;;4917376;29;20415;-68
2021/07/13 04:22:21;;;;;;;11.33;10.53;;;21.80;99.90;;;;;;4917854;29;20202;-68
2021/07/13 04:24:46;;;;;;;11.40;10.60;;;21.80;99.90;;;;;;4916954;29;20273;-68
2021/07/13 04:27:12;;;;;;;11.30;10.47;;;21.80;99.90;;;;;;4900988;29;20179;-68
2021/07/13 04:29:38;;;;;;;15.53;14.43;;;21.80;99.90;;;;;;4917817;29;20174;-68
2021/07/13 04:32:04;;;;;;;12.40;11.50;;;21.80;99.90;;;;;;4917053;29;20616;-68
2021/07/13 04:34:31;;;;;;;13.57;12.47;;;21.80;99.90;;;;;;4917757;29;20182;-68
2021/07/13 04:36:57;;;;;;;12.90;11.90;;;21.80;99.90;;;;;;4917014;29;20410;-68
2021/07/13 04:39:23;;;;;;;11.73;10.93;;;21.80;99.90;;;;;;4917256;29;20423;-68
2021/07/13 04:41:48;;;;;;;13.17;12.23;;;21.80;99.90;;;;;;4916994;29;20202;-68
2021/07/13 04:44:14;;;;;;;12.20;11.10;;;21.80;99.90;;;;;;4900423;29;20513;-68
2021/07/13 04:46:40;;;;;;;12.00;11.10;;;21.80;99.90;;;;;;4916876;29;20185;-69
2021/07/13 04:49:06;;;;;;;12.80;11.90;;;21.80;99.90;;;;;;4917123;29;20498;-68
2021/07/13 04:51:31;;;;;;;12.20;11.20;;;21.70;99.90;;;;;;4917496;29;20286;-68
2021/07/13 04:53:57;;;;;;;11.90;11.00;;;21.70;99.90;;;;;;4916757;29;20669;-68
2021/07/13 04:56:23;;;;;;;12.90;11.93;;;21.80;99.90;;;;;;4917002;29;20265;-68
2021/07/13 04:58:48;;;;;;;12.80;11.73;;;21.70;99.90;;;;;;4916691;29;20179;-68
2021/07/13 05:01:14;;;;;;;12.87;11.97;;;21.70;99.90;;;;;;4916970;29;20353;-68
2021/07/13 05:03:40;;;;;;;12.07;11.07;;;21.70;99.90;;;;;;4916945;29;20284;-68
2021/07/13 05:06:06;;;;;;;12.23;11.13;;;21.70;99.90;;;;;;4916584;29;20623;-68
2021/07/13 05:08:32;;;;;;;12.70;11.70;;;21.70;99.90;;;;;;4917063;29;20178;-68
2021/07/13 05:10:58;;;;;;;12.27;11.27;;;21.70;99.90;;;;;;4916464;29;20430;-68
2021/07/13 05:13:23;;;;;;;12.37;11.37;;;21.70;99.90;;;;;;4916803;29;20167;-68
2021/07/13 05:15:49;;;;;;;13.30;12.20;;;21.60;99.90;;;;;;4916630;29;20223;-69
2021/07/13 05:18:16;;;;;;;13.00;12.00;;;21.60;99.90;;;;;;4916986;29;20257;-68
2021/07/13 05:20:49;;;;;;;13.87;12.77;;;21.50;99.90;;;;;;4916857;29;20678;-68
2021/07/13 05:23:16;;;;;;;15.53;14.03;;;21.20;99.90;;;;;;4917021;29;20807;-68
2021/07/13 05:25:42;;;;;;;14.57;13.27;;;21.10;99.90;;;;;;4916255;29;20415;-68
2021/07/13 05:28:12;;;;;;;16.10;14.60;;;21.00;99.90;;;;;;4916222;29;20421;-68
2021/07/13 05:30:43;;;;;;;14.03;12.77;;;21.00;99.90;;;;;;4915795;29;20458;-68
2021/07/13 05:33:09;;;;;;;14.63;13.20;;;20.90;99.90;;;;;;4916217;29;20409;-68
2021/07/13 05:35:34;;;;;;;14.43;13.10;;;20.80;99.90;;;;;;4916480;29;20418;-68
2021/07/13 05:38:00;;;;;;;14.53;13.20;;;20.70;99.90;;;;;;4914393;29;20836;-73
2021/07/13 05:40:26;;;;;;;14.67;13.27;;;20.70;99.90;;;;;;4916354;29;20186;-71
2021/07/13 05:42:53;;;;;;;14.83;13.40;;;20.60;99.90;;;;;;4915897;29;20622;-71
2021/07/13 05:45:18;;;;;;;14.73;13.43;;;20.50;99.90;;;;;;4916523;29;20411;-68
2021/07/13 05:47:44;;;;;;;15.57;14.07;;;20.40;99.90;;;;;;4916589;29;20398;-67
2021/07/13 05:50:11;;;;;;;14.67;13.33;;;20.40;99.90;;;;;;4899457;29;20285;-67
2021/07/13 05:52:38;;;;;;;14.93;13.73;;;20.50;99.90;;;;;;4916460;29;20927;-68
2021/07/13 05:55:04;;;;;;;15.30;14.00;;;20.50;99.90;;;;;;4915879;29;20415;-69
2021/07/13 05:57:30;;;;;;;15.50;14.20;;;20.60;99.90;;;;;;4916159;29;20505;-68
2021/07/13 05:59:56;;;;;;;14.50;13.30;;;20.60;99.90;;;;;;4916526;29;20521;-68
2021/07/13 06:02:23;;;;;;;15.30;14.10;;;20.70;99.90;;;;;;4899025;29;20472;-68
2021/07/13 06:04:49;;;;;;;15.33;13.97;;;20.70;99.90;;;;;;4915424;29;20794;-69
2021/07/13 06:07:15;;;;;;;16.20;14.70;;;20.70;99.90;;;;;;4916288;29;20430;-68
2021/07/13 06:09:40;;;;;;;15.63;14.23;;;20.80;99.90;;;;;;4916391;29;20445;-68
2021/07/13 06:12:06;;;;;;;15.03;13.60;;;20.80;99.90;;;;;;4915661;29;20190;-68
2021/07/13 06:14:36;;;;;;;16.77;15.40;;;20.90;99.90;;;;;;4916374;29;20235;-68
2021/07/13 06:17:06;;;;;;;16.20;14.60;;;20.90;99.90;;;;;;4915665;29;20423;-68
2021/07/13 06:19:32;;;;;;;15.13;13.80;;;20.90;99.90;;;;;;4916037;29;20411;-68
2021/07/13 06:21:57;;;;;;;17.30;15.60;;;20.90;99.90;;;;;;4915529;29;20469;-68
2021/07/13 06:24:23;;;;;;;17.47;15.83;;;21.00;99.90;;;;;;4918023;29;20182;-67
2021/07/13 06:26:49;;;;;;;18.03;16.23;;;21.00;99.90;;;;;;4915510;29;20193;-68
2021/07/13 06:29:15;;;;;;;15.80;14.30;;;21.00;99.90;;;;;;4915831;29;20183;-68
2021/07/13 06:31:40;;;;;;;16.67;15.23;;;21.00;99.90;;;;;;4915915;29;20232;-68
2021/07/13 06:34:06;;;;;;;18.00;16.37;;;21.10;99.90;;;;;;4915434;29;20273;-68
2021/07/13 06:36:32;;;;;;;17.37;15.83;;;21.10;99.90;;;;;;4916499;29;20642;-68
2021/07/13 06:38:58;;;;;;;16.77;15.07;;;21.20;99.90;;;;;;4919120;29;20425;-68
2021/07/13 06:41:24;;;;;;;17.53;16.00;;;21.20;99.90;;;;;;4919264;29;20820;-68
2021/07/13 06:43:50;;;;;;;16.13;14.70;;;21.30;99.90;;;;;;4919047;29;20418;-69
2021/07/13 06:46:16;;;;;;;17.37;15.53;;;21.30;99.90;;;;;;4919333;29;20197;-68
2021/07/13 06:48:42;;;;;;;17.80;16.10;;;21.30;99.90;;;;;;4919467;29;20216;-68
2021/07/13 06:51:07;;;;;;;20.60;15.13;;;21.30;99.90;;;;;;4918954;29;20265;-68
2021/07/13 06:53:33;;;;;;;17.77;16.07;;;21.30;99.90;;;;;;4919436;29;20407;-68
2021/07/13 06:55:59;;;;;;;18.63;16.67;;;21.30;99.90;;;;;;4918843;29;20178;-69
2021/07/13 06:58:24;;;;;;;19.33;17.67;;;21.30;99.90;;;;;;4919282;29;20258;-70
2021/07/13 07:00:50;;;;;;;20.13;18.13;;;21.30;99.90;;;;;;4920443;29;20634;-70
2021/07/13 07:03:16;;;;;;;18.67;17.07;;;21.30;99.90;;;;;;4919139;29;20604;-69
2021/07/13 07:05:42;;;;;;;18.20;16.60;;;21.30;99.90;;;;;;4919172;29;20193;-69
2021/07/13 07:08:08;;;;;;;19.10;17.20;;;21.30;99.90;;;;;;4918694;29;20250;-71
2021/07/13 07:10:35;;;;;;;19.70;17.60;;;21.30;99.90;;;;;;4919061;29;20425;-70
2021/07/13 07:13:01;;;;;;;20.17;17.93;;;21.30;99.90;;;;;;4918568;29;20418;-70
2021/07/13 07:15:28;;;;;;;19.40;17.70;;;21.30;99.90;;;;;;4919101;29;20465;-71
2021/07/13 07:17:54;;;;;;;19.73;17.80;;;21.40;99.90;;;;;;4918339;29;20701;-72
2021/07/13 07:20:22;;;;;;;18.97;17.17;;;21.40;99.90;;;;;;4918659;29;20513;-71
2021/07/13 07:22:49;;;;;;;19.40;17.70;;;21.40;99.90;;;;;;4918670;29;20418;-71
2021/07/13 07:25:15;;;;;;;20.63;18.83;;;21.40;99.90;;;;;;4918048;29;20891;-71
2021/07/13 07:27:41;;;;;;;18.40;16.70;;;21.50;99.90;;;;;;4917860;29;20422;-72
2021/07/13 07:30:09;;;;;;;19.40;17.70;;;21.50;99.90;;;;;;4917770;29;20434;-71
2021/07/13 07:32:36;;;;;;;16.80;15.33;;;21.50;99.90;;;;;;4918821;29;20470;-71
2021/07/13 07:35:03;;;;;;;19.37;17.47;;;21.60;99.90;;;;;;4917830;29;20516;-71
2021/07/13 07:37:29;;;;;;;18.90;17.20;;;21.60;99.90;;;;;;4918423;29;20415;-71
2021/07/13 07:39:55;;;;;;;19.30;17.50;;;21.60;99.90;;;;;;4918060;29;20762;-71
2021/07/13 07:42:21;;;;;;;19.63;17.83;;;21.70;99.90;;;;;;4918194;29;20233;-71
2021/07/13 07:44:46;;;;;;;22.77;20.60;;;21.70;99.90;;;;;;4918390;29;20194;-71
2021/07/13 07:47:12;;;;;;;22.33;20.33;;;21.80;99.90;;;;;;4918112;29;20242;-71
2021/07/13 07:49:38;;;;;;;22.53;20.60;;;21.80;99.90;;;;;;4901100;29;20215;-71
2021/07/13 07:52:03;;;;;;;23.27;21.17;;;21.90;99.90;;;;;;4917827;29;20186;-72
2021/07/13 07:54:30;;;;;;;22.07;20.17;;;21.90;99.90;;;;;;4901574;29;20178;-71
2021/07/13 07:56:55;;;;;;;20.77;18.97;;;22.00;99.90;;;;;;4917655;29;20189;-71
2021/07/13 07:59:21;;;;;;;19.23;17.43;;;22.00;99.90;;;;;;4918214;29;20501;-71
2021/07/13 08:01:48;;;;;;;18.10;16.50;;;22.00;99.90;;;;;;4918401;29;20293;-70
2021/07/13 08:04:14;;;;;;;16.90;15.50;;;22.10;99.90;;;;;;4900393;29;20205;-71
2021/07/13 08:06:39;;;;;;;17.87;16.20;;;22.20;99.90;;;;;;4918254;29;20410;-71
2021/07/13 08:09:07;;;;;;;17.03;15.53;;;22.10;99.90;;;;;;4916916;29;20175;-71
2021/07/13 08:11:34;;;;;;;17.07;15.60;;;22.20;99.90;;;;;;4917668;29;20273;-74
2021/07/13 08:14:00;;;;;;;17.93;16.23;;;22.20;99.90;;;;;;4916782;29;20434;-71
2021/07/13 08:16:30;;;;;;;16.70;15.20;;;22.20;99.90;;;;;;4917870;29;20433;-71
2021/07/13 08:18:56;;;;;;;16.17;14.77;;;22.20;99.90;;;;;;4917385;29;20410;-71
2021/07/13 08:21:22;;;;;;;17.03;15.63;;;22.30;99.90;;;;;;4901216;29;20451;-71
2021/07/13 08:23:47;;;;;;;17.90;16.30;;;22.30;99.90;;;;;;4917872;29;20182;-71
2021/07/13 08:26:13;;;;;;;16.87;15.30;;;22.30;99.90;;;;;;4917254;29;20532;-71
2021/07/13 08:28:39;;;;;;;16.17;14.77;;;22.30;99.90;;;;;;4917840;29;20261;-70
2021/07/13 08:31:06;;;;;;;15.27;13.97;;;22.30;99.90;;;;;;4916978;29;20459;-71
2021/07/13 08:33:32;;;;;;;15.50;14.40;;;22.30;99.90;;;;;;4917677;29;20477;-71
2021/07/13 08:35:58;;;;;;;16.43;15.00;;;22.30;99.90;;;;;;4917049;29;20804;-81
2021/07/13 08:38:24;;;;;;;18.50;16.70;;;22.30;99.90;;;;;;4917372;29;20509;-69
2021/07/13 08:40:50;;;;;;;15.60;14.27;;;22.30;99.90;;;;;;4917516;29;20466;-70
2021/07/13 08:43:16;;;;;;;16.67;15.17;;;22.40;99.90;;;;;;4916858;29;20190;-70
2021/07/13 08:45:43;;;;;;;17.20;15.70;;;22.40;99.90;;;;;;4917516;29;20647;-71
2021/07/13 08:48:12;;;;;;;15.63;14.33;;;22.40;99.90;;;;;;4917084;29;20433;-70
2021/07/13 08:50:38;;;;;;;15.13;13.80;;;22.40;99.90;;;;;;4917415;29;20443;-70
2021/07/13 08:53:05;;;;;;;15.70;14.40;;;22.40;99.90;;;;;;4916806;29;20422;-71
2021/07/13 08:55:31;;;;;;;15.70;14.37;;;22.40;99.90;;;;;;4917338;29;20415;-70
2021/07/13 08:57:57;;;;;;;17.23;15.83;;;22.50;99.90;;;;;;4916712;29;20407;-71
2021/07/13 09:00:23;;;;;;;17.90;16.60;;;22.50;99.90;;;;;;4916298;29;20918;-71
2021/07/13 09:03:10;;;;;;;17.97;16.40;;;22.60;99.90;;;;;;4917265;29;20265;-71
2021/07/13 09:05:42;;;;;;;16.83;15.43;;;22.60;99.90;;;;;;4916921;29;20261;-71
2021/07/13 09:08:18;;;;;;;19.07;17.33;;;22.60;99.90;;;;;;4899678;29;20450;-70
2021/07/13 09:11:17;;;;;;;20.57;18.67;;;22.70;99.90;;;;;;4917079;29;20406;-71
2021/07/13 09:13:49;;;;;;;22.10;20.10;;;22.90;99.90;;;;;;4917048;29;20443;-71
2021/07/13 09:16:18;;;;;;;20.30;18.40;;;22.90;99.90;;;;;;4916434;29;20411;-71
2021/07/13 09:18:48;;;;;;;19.87;18.10;;;22.90;99.90;;;;;;4900099;29;20413;-71
2021/07/13 09:21:21;;;;;;;19.70;18.00;;;23.00;99.90;;;;;;4916046;29;20473;-71
2021/07/13 09:24:09;;;;;;;22.13;20.23;;;23.10;99.90;;;;;;4917005;29;20757;-71
2021/07/13 09:27:03;;;;;;;21.07;19.23;;;23.20;99.90;;;;;;4916813;29;20462;-71
2021/07/13 09:29:48;;;;;;;20.70;18.90;;;23.30;99.90;;;;;;4914412;29;20430;-70
2021/07/13 09:32:32;;;;;;;19.80;18.23;;;23.40;99.90;;;;;;4916265;29;20474;-70
2021/07/13 09:35:09;;;;;;;26.87;24.47;;;23.50;99.90;;;;;;4917217;29;20418;-70
2021/07/13 09:37:47;;;;;;;18.93;17.43;;;23.50;99.90;;;;;;4916820;29;20473;-71
2021/07/13 09:40:17;;;;;;;18.67;17.13;;;23.50;99.90;;;;;;4899229;29;20476;-71
2021/07/13 09:42:52;;;;;;;19.90;18.10;;;23.50;99.90;;;;;;4916783;29;20522;-70
2021/07/13 09:45:19;;;;;;;18.77;17.20;;;23.50;99.90;;;;;;4916251;29;20431;-71
2021/07/13 09:47:45;;;;;;;20.07;18.37;;;23.50;99.90;;;;;;4916883;29;20427;-72
2021/07/13 09:50:12;;;;;;;20.07;18.23;;;23.50;99.90;;;;;;4916415;29;20509;-70
2021/07/13 09:52:38;;;;;;;19.07;17.27;;;23.50;99.90;;;;;;4916850;29;20422;-70
2021/07/13 09:55:17;;;;;;;21.27;19.47;;;23.60;99.90;;;;;;4916377;29;20407;-69
2021/07/13 09:57:43;;;;;;;20.87;18.93;;;23.50;99.90;;;;;;4916815;29;20442;-71
2021/07/13 10:00:10;;;;;;;19.77;18.07;;;23.60;99.90;;;;;;4916558;29;20429;-71
2021/07/13 10:02:35;;;;;;;19.80;18.10;;;23.60;99.90;;;;;;4916277;29;20470;-71
2021/07/13 10:05:03;;;;;;;20.60;19.00;;;23.70;99.90;;;;;;4916549;29;20922;-71
2021/07/13 10:07:30;;;;;;;17.93;16.53;;;23.80;99.90;;;;;;4916986;29;20191;-71
2021/07/13 10:09:59;;;;;;;17.13;15.63;;;23.80;99.90;;;;;;4916800;29;20909;-70
2021/07/13 10:12:26;;;;;;;17.70;16.33;;;23.80;99.90;;;;;;4918557;29;20414;-70
2021/07/13 10:14:56;;;;;;;18.30;16.70;;;23.90;99.90;;;;;;4920606;29;20415;-71
2021/07/13 10:17:30;;;;;;;18.10;16.70;;;23.90;99.90;;;;;;4920440;29;20570;-71
2021/07/13 10:20:06;;;;;;;18.70;17.10;;;24.00;99.90;;;;;;4920373;29;20419;-71
2021/07/13 10:22:35;;;;;;;20.77;18.87;;;24.00;99.90;;;;;;4920640;29;21037;-73
2021/07/13 10:25:01;;;;;;;19.70;18.10;;;24.00;99.90;;;;;;4920571;29;20477;-70
2021/07/13 10:27:30;;;;;;;20.33;18.50;;;24.00;99.90;;;;;;4920536;29;20493;-70
2021/07/13 10:30:01;;;;;;;17.43;16.07;;;24.00;99.90;;;;;;4920548;29;20418;-70
2021/07/13 10:32:27;;;;;;;17.60;16.20;;;24.00;99.90;;;;;;4920587;29;20822;-71
2021/07/13 10:34:59;;;;;;;14.47;13.37;;;24.00;99.90;;;;;;4920434;29;20434;-71
2021/07/13 10:37:28;;;;;;;17.73;13.77;;;24.00;99.90;;;;;;4919579;29;20302;-71
2021/07/13 10:39:57;;;;;;;12.10;11.30;;;23.90;99.90;;;;;;4920057;29;20469;-70
2021/07/13 10:42:42;;;;;;;15.07;13.90;;;24.00;99.90;;;;;;4919702;29;20465;-71
2021/07/13 10:45:15;;;;;;;12.57;11.60;;;23.90;99.90;;;;;;4919892;29;20768;-71
2021/07/13 10:48:15;;;;;;;11.30;10.43;;;23.90;99.90;;;;;;4920178;29;20422;-71
2021/07/13 10:50:48;;;;;;;10.93;10.13;;;23.90;99.90;;;;;;4920266;29;20414;-71
2021/07/13 10:53:18;;;;;;;10.87;10.07;;;23.80;99.90;;;;;;4919966;29;20418;-71
2021/07/13 10:55:49;;;;;;;14.37;13.37;;;23.90;99.90;;;;;;4920400;29;20407;-71
2021/07/13 10:58:14;;;;;;;13.43;12.40;;;23.90;99.90;;;;;;4919768;29;20407;-71
2021/07/13 11:00:58;;;;;;;11.70;10.80;;;23.90;99.90;;;;;;4919775;29;20422;-71
2021/07/13 11:03:32;;;;;;;10.50;9.80;;;23.90;99.90;;;;;;4919675;29;20190;-71
2021/07/13 11:06:03;;;;;;;11.00;10.20;;;23.90;99.90;;;;;;4919556;29;20810;-71
2021/07/13 11:08:41;;;;;;;10.97;10.17;;;24.00;99.90;;;;;;4919772;29;20419;-71
2021/07/13 11:11:06;;;;;;;10.80;10.10;;;23.90;99.90;;;;;;4919261;29;20418;-71
2021/07/13 11:13:33;;;;;;;10.80;10.10;;;24.00;99.90;;;;;;4920037;29;20470;-71
2021/07/13 11:15:59;;;;;;;11.57;10.77;;;24.00;99.90;;;;;;4919634;29;20174;-71
2021/07/13 11:18:32;;;;;;;19.70;17.83;;;24.10;99.90;;;;;;4919216;29;20513;-71
2021/07/13 11:21:14;;;;;;;15.40;14.10;;;24.00;99.90;;;;;;4902413;29;20210;-71
2021/07/13 11:23:40;;;;;;;12.60;11.50;;;24.00;99.90;;;;;;4918092;29;20442;-71
2021/07/13 11:26:10;;;;;;;12.93;11.93;;;24.00;99.90;;;;;;4918416;29;20406;-72
2021/07/13 11:28:37;;;;;;;11.30;10.50;;;24.00;99.90;;;;;;4918695;29;20498;-71
2021/07/13 11:31:03;;;;;;;11.30;10.50;;;24.00;99.90;;;;;;4918432;29;20502;-71
2021/07/13 11:33:30;;;;;;;11.20;10.50;;;23.90;99.90;;;;;;4917903;29;20410;-71
2021/07/13 11:35:59;;;;;;;10.77;9.97;;;23.90;99.90;;;;;;4918751;29;20469;-71
2021/07/13 11:38:31;;;;;;;10.53;9.63;;;23.90;99.90;;;;;;4918128;29;20506;-71
2021/07/13 11:41:16;;;;;;;10.40;9.70;;;23.90;99.90;;;;;;4918539;29;20458;-72
2021/07/13 11:43:43;;;;;;;10.43;9.63;;;23.80;99.90;;;;;;4918817;29;20415;-71
2021/07/13 11:46:23;;;;;;;10.80;10.10;;;23.80;99.90;;;;;;4917971;29;20421;-71
2021/07/13 11:48:55;;;;;;;10.47;9.73;;;23.60;99.90;;;;;;4918546;29;20763;-71
2021/07/13 11:51:32;;;;;;;10.40;9.70;;;23.80;99.90;;;;;;4917914;29;20418;-71
2021/07/13 11:54:06;;;;;;;10.70;9.90;;;23.80;99.90;;;;;;4918538;29;20406;-71
2021/07/13 11:56:33;;;;;;;10.90;10.10;;;23.70;99.90;;;;;;4901702;29;20414;-71
2021/07/13 11:59:00;;;;;;;10.13;9.43;;;23.80;99.90;;;;;;4918452;29;20909;-71
2021/07/13 12:01:31;;;;;;;11.23;10.43;;;23.80;99.90;;;;;;4917410;29;20455;-71
2021/07/13 12:04:17;;;;;;;11.40;10.50;;;23.80;99.90;;;;;;4918316;29;20445;-71
2021/07/13 12:06:43;;;;;;;10.97;10.17;;;23.60;99.90;;;;;;4917840;29;20501;-71
2021/07/13 12:09:12;;;;;;;10.70;10.00;;;23.70;99.90;;;;;;4900423;29;20513;-72
2021/07/13 12:11:45;;;;;;;11.07;10.37;;;23.80;99.90;;;;;;4918077;29;20407;-71
2021/07/13 12:14:14;;;;;;;11.83;10.93;;;23.90;99.90;;;;;;4917734;29;20458;-71
2021/07/13 12:16:41;;;;;;;12.27;11.37;;;24.00;99.90;;;;;;4918024;29;20907;-71
2021/07/13 12:19:18;;;;;;;11.70;10.90;;;24.00;99.90;;;;;;4918013;29;20890;-71
2021/07/13 12:21:48;;;;;;;11.20;10.40;;;24.00;99.90;;;;;;4918211;29;20461;-71
2021/07/13 12:24:17;;;;;;;12.33;11.33;;;24.10;99.90;;;;;;4917424;29;20437;-71
2021/07/13 12:26:54;;;;;;;11.53;10.73;;;24.10;99.90;;;;;;4917591;29;20414;-71
2021/07/13 12:29:21;;;;;;;11.80;10.90;;;24.10;99.90;;;;;;4917369;29;20413;-71
2021/07/13 12:31:47;;;;;;;13.17;12.17;;;24.10;99.90;;;;;;4917560;29;20584;-71
2021/07/13 12:34:23;;;;;;;12.70;11.80;;;23.90;99.90;;;;;;4917343;29;20514;-71
2021/07/13 12:37:09;;;;;;;11.67;10.87;;;23.90;99.90;;;;;;4917831;29;20185;-71
2021/07/13 12:39:37;;;;;;;11.40;10.60;;;24.00;99.90;;;;;;4917465;29;20406;-71